Time;durP1;ratioP1;P1;durP2;ratioP2;P2;SDS_P1;SDS_P2;PMS_P1;PMS_P2;Temp;Humidity;BMP_temperature;BMP_pressure;BME280_temperature;BME280_humidity;BME280_pressure;Samples;Min_cycle;Max_cycle;Signal;HPM_P1;HPM_P2
2021/07/24 00:02:10;;;;;;;2.17;1.90;;;;;;;;;;4921061;29;20205;-83
2021/07/24 00:04:38;;;;;;;2.20;2.00;;;;;;;;;;4921118;29;20233;-83
2021/07/24 00:07:06;;;;;;;2.20;2.05;;;;;;;;;;4921351;29;20206;-84
2021/07/24 00:09:33;;;;;;;2.47;2.28;;;;;;;;;;4920480;29;20217;-80
2021/07/24 00:12:01;;;;;;;2.17;2.08;;;;;;;;;;4920712;29;20230;-83
2021/07/24 00:14:28;;;;;;;2.53;2.33;;;;;;;;;;4920496;29;20233;-85
2021/07/24 00:16:55;;;;;;;2.10;1.90;;;;;;;;;;4909208;29;20654;-86
2021/07/24 00:19:24;;;;;;;2.85;1.88;;;;;;;;;;4900084;29;20363;-84
2021/07/24 00:21:52;;;;;;;2.47;2.28;;;;;;;;;;4901851;29;20199;-82
2021/07/24 00:24:19;;;;;;;2.10;2.00;;;;;;;;;;4901312;29;20242;-84
2021/07/24 00:26:48;;;;;;;3.58;2.30;;;;;;;;;;4906540;29;20203;-83
2021/07/24 00:29:16;;;;;;;2.08;1.88;;;;;;;;;;4901331;29;20238;-84
2021/07/24 00:31:43;;;;;;;2.85;2.25;;;;;;;;;;4915289;29;20214;-84
2021/07/24 00:34:10;;;;;;;3.00;2.35;;;;;;;;;;4920603;29;20237;-84
2021/07/24 00:36:39;;;;;;;3.20;2.90;;;;;;;;;;4920751;29;20187;-84
2021/07/24 00:39:07;;;;;;;2.17;2.03;;;;;;;;;;4919439;29;20217;-83
2021/07/24 00:41:43;;;;;;;3.20;2.85;;;;;;;;;;4919894;29;20230;-84
2021/07/24 00:44:11;;;;;;;2.83;2.30;;;;;;;;;;4920417;29;20221;-82
2021/07/24 00:46:38;;;;;;;3.05;2.75;;;;;;;;;;4919893;29;20808;-84
2021/07/24 00:49:07;;;;;;;2.00;1.80;;;;;;;;;;4919899;29;20202;-83
2021/07/24 00:51:35;;;;;;;2.30;2.10;;;;;;;;;;4919712;29;20719;-82
2021/07/24 00:54:04;;;;;;;2.10;2.00;;;;;;;;;;4920247;29;20266;-83
2021/07/24 00:56:32;;;;;;;2.40;2.20;;;;;;;;;;4919030;29;20209;-86
2021/07/24 00:59:00;;;;;;;3.00;2.38;;;;;;;;;;4919427;29;20194;-86
2021/07/24 01:01:27;;;;;;;2.67;2.38;;;;;;;;;;4919639;29;20209;-85
2021/07/24 01:03:55;;;;;;;2.10;1.98;;;;;;;;;;4918606;29;20230;-85
2021/07/24 01:06:22;;;;;;;2.67;2.47;;;;;;;;;;4919056;29;20183;-85
2021/07/24 01:08:50;;;;;;;2.65;2.30;;;;;;;;;;4918996;29;20569;-86
2021/07/24 01:11:19;;;;;;;2.30;2.17;;;;;;;;;;4918592;29;20213;-85
2021/07/24 01:13:47;;;;;;;2.85;2.65;;;;;;;;;;4918037;29;20217;-85
2021/07/24 01:16:14;;;;;;;2.60;2.40;;;;;;;;;;4919407;29;20577;-85
2021/07/24 01:18:42;;;;;;;3.28;2.63;;;;;;;;;;4919241;29;20210;-86
2021/07/24 01:21:10;;;;;;;2.08;1.92;;;;;;;;;;4918904;29;20210;-85
2021/07/24 01:23:40;;;;;;;2.28;2.10;;;;;;;;;;4918447;29;20709;-85
2021/07/24 01:26:08;;;;;;;3.00;2.70;;;;;;;;;;4918662;29;20693;-85
2021/07/24 01:28:36;;;;;;;2.97;2.78;;;;;;;;;;4918618;29;20225;-87
2021/07/24 01:31:07;;;;;;;4.43;3.25;;;;;;;;;;4919067;29;20203;-83
2021/07/24 01:33:35;;;;;;;3.05;2.70;;;;;;;;;;4918673;29;20737;-83
2021/07/24 01:36:02;;;;;;;2.67;2.45;;;;;;;;;;4919221;29;20193;-84
2021/07/24 01:38:30;;;;;;;2.63;2.42;;;;;;;;;;4918916;29;20594;-83
2021/07/24 01:40:59;;;;;;;2.65;2.45;;;;;;;;;;4919340;29;20198;-82
2021/07/24 01:43:27;;;;;;;3.13;2.88;;;;;;;;;;4919423;29;20645;-84
2021/07/24 01:45:54;;;;;;;3.28;2.78;;;;;;;;;;4919501;29;20213;-81
2021/07/24 01:48:31;;;;;;;3.25;2.95;;;;;;;;;;4901970;29;20199;-85
2021/07/24 01:53:47;;;;;;;3.38;3.10;;;;;;;;;;4918617;29;20311;-86
2021/07/24 01:56:19;;;;;;;2.65;2.45;;;;;;;;;;4918928;29;20613;-86
2021/07/24 01:58:46;;;;;;;4.00;3.60;;;;;;;;;;4918756;29;20191;-86
2021/07/24 02:01:14;;;;;;;2.58;2.45;;;;;;;;;;4918195;29;20922;-86
2021/07/24 02:03:44;;;;;;;2.60;2.40;;;;;;;;;;4918426;29;20613;-83
2021/07/24 02:06:13;;;;;;;2.65;2.45;;;;;;;;;;4900187;29;20187;-83
2021/07/24 02:08:44;;;;;;;2.33;2.20;;;;;;;;;;4899707;29;20589;-86
2021/07/24 02:11:12;;;;;;;2.85;2.30;;;;;;;;;;4911422;29;20206;-85
2021/07/24 02:13:40;;;;;;;3.25;2.72;;;;;;;;;;4917136;29;20230;-85
2021/07/24 02:16:08;;;;;;;3.17;2.88;;;;;;;;;;4898390;29;20196;-85
2021/07/24 02:18:36;;;;;;;2.50;2.30;;;;;;;;;;4897759;29;20202;-85
2021/07/24 02:21:04;;;;;;;2.83;2.10;;;;;;;;;;4908503;29;20222;-85
2021/07/24 02:23:32;;;;;;;2.60;2.40;;;;;;;;;;4916200;29;20368;-85
2021/07/24 02:25:59;;;;;;;2.88;2.58;;;;;;;;;;4917038;29;20206;-84
2021/07/24 02:28:27;;;;;;;3.20;2.90;;;;;;;;;;4917045;29;20214;-85
2021/07/24 02:30:55;;;;;;;3.65;2.50;;;;;;;;;;4916206;29;20209;-85
2021/07/24 02:33:23;;;;;;;3.45;3.10;;;;;;;;;;4916519;29;20693;-85
2021/07/24 02:35:50;;;;;;;4.13;3.17;;;;;;;;;;4916855;29;20187;-86
2021/07/24 02:38:19;;;;;;;2.63;2.42;;;;;;;;;;4916971;29;20186;-83
2021/07/24 02:40:46;;;;;;;2.40;2.22;;;;;;;;;;4916101;29;20233;-82
2021/07/24 02:43:15;;;;;;;3.10;2.80;;;;;;;;;;4916627;29;20245;-83
2021/07/24 02:45:42;;;;;;;2.85;2.65;;;;;;;;;;4916956;29;20206;-82
2021/07/24 02:48:11;;;;;;;3.95;3.15;;;;;;;;;;4916798;29;20213;-84
2021/07/24 02:50:38;;;;;;;2.70;2.50;;;;;;;;;;4916872;29;20279;-82
2021/07/24 02:53:07;;;;;;;2.78;2.58;;;;;;;;;;4916705;29;20234;-82
2021/07/24 02:55:34;;;;;;;2.65;2.47;;;;;;;;;;4916304;29;20202;-82
2021/07/24 02:58:02;;;;;;;4.05;3.08;;;;;;;;;;4916393;29;20183;-83
2021/07/24 03:00:29;;;;;;;3.67;2.70;;;;;;;;;;4913374;29;20219;-82
2021/07/24 03:02:57;;;;;;;2.80;2.60;;;;;;;;;;4897901;29;20194;-82
2021/07/24 03:05:25;;;;;;;3.97;3.08;;;;;;;;;;4897830;29;20195;-83
2021/07/24 03:07:53;;;;;;;3.10;2.80;;;;;;;;;;4897443;29;20661;-83
2021/07/24 03:10:20;;;;;;;3.53;3.22;;;;;;;;;;4897685;29;20582;-84
2021/07/24 03:12:48;;;;;;;3.55;3.10;;;;;;;;;;4897190;29;20202;-82
2021/07/24 03:15:15;;;;;;;3.20;2.90;;;;;;;;;;4897385;29;20187;-82
2021/07/24 03:17:43;;;;;;;3.03;2.72;;;;;;;;;;4897279;29;20204;-83
2021/07/24 03:20:12;;;;;;;2.92;2.70;;;;;;;;;;4897582;29;20199;-83
2021/07/24 03:22:41;;;;;;;2.78;2.53;;;;;;;;;;4896945;29;20208;-82
2021/07/24 03:25:10;;;;;;;3.08;2.58;;;;;;;;;;4897581;29;20718;-83
2021/07/24 03:27:37;;;;;;;3.50;3.20;;;;;;;;;;4900664;29;20214;-82
2021/07/24 03:30:07;;;;;;;7.78;2.95;;;;;;;;;;4915999;29;20206;-83
2021/07/24 03:32:34;;;;;;;3.40;3.10;;;;;;;;;;4916614;29;20217;-83
2021/07/24 03:35:02;;;;;;;3.17;2.90;;;;;;;;;;4916431;29;20230;-83
2021/07/24 03:37:29;;;;;;;3.53;2.92;;;;;;;;;;4920111;29;20186;-83
2021/07/24 03:39:58;;;;;;;3.15;2.90;;;;;;;;;;4920269;29;20692;-83
2021/07/24 03:42:25;;;;;;;2.85;2.65;;;;;;;;;;4920196;29;20194;-82
2021/07/24 03:44:53;;;;;;;2.83;2.60;;;;;;;;;;4919715;29;20229;-82
2021/07/24 03:47:20;;;;;;;3.78;2.83;;;;;;;;;;4920097;29;20198;-82
2021/07/24 03:49:48;;;;;;;2.88;2.67;;;;;;;;;;4920253;29;20206;-82
2021/07/24 03:52:16;;;;;;;3.03;2.83;;;;;;;;;;4919908;29;20213;-83
2021/07/24 03:54:44;;;;;;;3.28;3.00;;;;;;;;;;4919960;29;20233;-83
2021/07/24 03:57:12;;;;;;;3.08;2.42;;;;;;;;;;4920075;29;20692;-82
2021/07/24 03:59:40;;;;;;;3.65;3.38;;;;;;;;;;4919782;29;20557;-83
2021/07/24 04:02:11;;;;;;;4.95;3.08;;;;;;;;;;4919756;29;20217;-83
2021/07/24 04:04:39;;;;;;;3.40;3.10;;;;;;;;;;4917518;29;20226;-82
2021/07/24 04:07:07;;;;;;;3.40;3.10;;;;;;;;;;4900833;29;20211;-82
2021/07/24 04:09:34;;;;;;;3.13;2.85;;;;;;;;;;4913209;29;20233;-82
2021/07/24 04:12:02;;;;;;;3.63;3.33;;;;;;;;;;4919396;29;20210;-82
2021/07/24 04:14:31;;;;;;;4.80;3.20;;;;;;;;;;4918399;29;20231;-84
2021/07/24 04:16:58;;;;;;;3.50;3.17;;;;;;;;;;4900670;29;20218;-83
2021/07/24 04:19:26;;;;;;;3.40;3.10;;;;;;;;;;4900432;29;20207;-83
2021/07/24 04:21:53;;;;;;;3.20;2.90;;;;;;;;;;4900632;29;20191;-82
2021/07/24 04:24:21;;;;;;;2.60;2.40;;;;;;;;;;4900094;29;20606;-82
2021/07/24 04:26:49;;;;;;;2.70;2.50;;;;;;;;;;4900254;29;20194;-82
2021/07/24 04:29:17;;;;;;;3.65;3.10;;;;;;;;;;4900598;29;20286;-82
2021/07/24 04:31:45;;;;;;;3.33;3.03;;;;;;;;;;4904115;29;20191;-83
2021/07/24 04:34:13;;;;;;;3.20;2.90;;;;;;;;;;4919127;29;20233;-83
2021/07/24 04:36:42;;;;;;;2.92;2.63;;;;;;;;;;4919412;29;20190;-83
2021/07/24 04:39:10;;;;;;;3.97;3.58;;;;;;;;;;4918997;29;20660;-83
2021/07/24 04:41:40;;;;;;;3.50;2.92;;;;;;;;;;4919225;29;20182;-82
2021/07/24 04:44:07;;;;;;;2.85;2.63;;;;;;;;;;4919039;29;20226;-82
2021/07/24 04:46:36;;;;;;;3.40;3.10;;;;;;;;;;4903807;29;20199;-83
2021/07/24 04:49:06;;;;;;;3.00;2.80;;;;;;;;;;4900011;29;20595;-82
2021/07/24 04:51:35;;;;;;;2.67;2.47;;;;;;;;;;4899995;29;20198;-83
2021/07/24 04:54:04;;;;;;;2.55;2.35;;;;;;;;;;4899692;29;20250;-83
2021/07/24 04:56:33;;;;;;;3.00;2.50;;;;;;;;;;4903595;29;20205;-83
2021/07/24 04:59:01;;;;;;;3.08;2.88;;;;;;;;;;4918380;29;20191;-83
2021/07/24 05:01:29;;;;;;;2.80;2.60;;;;;;;;;;4918493;29;20250;-85
2021/07/24 05:03:57;;;;;;;3.22;2.92;;;;;;;;;;4918513;29;20573;-82
2021/07/24 05:06:26;;;;;;;3.20;2.90;;;;;;;;;;4918777;29;20179;-84
2021/07/24 05:08:54;;;;;;;3.60;3.30;;;;;;;;;;4918593;29;20183;-83
2021/07/24 05:11:21;;;;;;;3.28;2.97;;;;;;;;;;4918588;29;20190;-83
2021/07/24 05:13:50;;;;;;;3.03;2.80;;;;;;;;;;4918545;29;20226;-83
2021/07/24 05:16:17;;;;;;;4.00;2.85;;;;;;;;;;4917262;29;20217;-84
2021/07/24 05:18:47;;;;;;;5.18;3.47;;;;;;;;;;4918472;29;20194;-82
2021/07/24 05:21:19;;;;;;;3.92;3.25;;;;;;;;;;4918805;29;20567;-83
2021/07/24 05:23:48;;;;;;;3.22;2.92;;;;;;;;;;4917523;29;20238;-83
2021/07/24 05:26:17;;;;;;;3.10;2.90;;;;;;;;;;4918350;29;20213;-81
2021/07/24 05:28:45;;;;;;;3.42;2.97;;;;;;;;;;4920691;29;20194;-82
2021/07/24 05:31:20;;;;;;;3.50;3.22;;;;;;;;;;4920181;29;20238;-82
2021/07/24 05:33:49;;;;;;;3.90;3.60;;;;;;;;;;4919546;29;20289;-82
2021/07/24 05:36:16;;;;;;;4.13;3.05;;;;;;;;;;4919872;29;20232;-81
2021/07/24 05:38:43;;;;;;;3.03;2.83;;;;;;;;;;4919797;29;20191;-81
2021/07/24 05:41:12;;;;;;;3.80;3.40;;;;;;;;;;4920627;29;20195;-81
2021/07/24 05:43:40;;;;;;;3.47;3.17;;;;;;;;;;4908749;29;20230;-81
2021/07/24 05:46:07;;;;;;;3.20;3.00;;;;;;;;;;4902093;29;20203;-82
2021/07/24 05:48:35;;;;;;;3.67;3.35;;;;;;;;;;4901305;29;20218;-83
2021/07/24 05:51:08;;;;;;;3.92;3.58;;;;;;;;;;4900609;29;20218;-82
2021/07/24 05:53:36;;;;;;;3.45;3.15;;;;;;;;;;4911462;29;20222;-82
2021/07/24 05:56:05;;;;;;;3.17;2.88;;;;;;;;;;4916730;29;20237;-83
2021/07/24 05:58:34;;;;;;;5.53;5.03;;;;;;;;;;4917817;29;20191;-82
2021/07/24 06:01:02;;;;;;;3.40;3.13;;;;;;;;;;4918564;29;20234;-81
2021/07/24 06:03:30;;;;;;;3.58;3.28;;;;;;;;;;4917079;29;20227;-83
2021/07/24 06:05:58;;;;;;;3.30;3.00;;;;;;;;;;4915944;29;20209;-81
2021/07/24 06:08:26;;;;;;;3.28;3.03;;;;;;;;;;4916936;29;20327;-82
2021/07/24 06:10:54;;;;;;;3.83;3.13;;;;;;;;;;4917410;29;20207;-81
2021/07/24 06:13:23;;;;;;;2.67;2.47;;;;;;;;;;4917522;29;20233;-81
2021/07/24 06:15:53;;;;;;;3.67;3.38;;;;;;;;;;4917087;29;20217;-81
2021/07/24 06:18:21;;;;;;;4.03;3.70;;;;;;;;;;4916964;29;20213;-82
2021/07/24 06:20:49;;;;;;;3.17;2.88;;;;;;;;;;4916977;29;20198;-81
2021/07/24 06:23:18;;;;;;;3.42;3.13;;;;;;;;;;4916856;29;20608;-83
2021/07/24 06:25:46;;;;;;;5.20;4.80;;;;;;;;;;4917073;29;20224;-82
2021/07/24 06:28:14;;;;;;;3.17;2.97;;;;;;;;;;4917000;29;20198;-82
2021/07/24 06:30:46;;;;;;;2.80;2.60;;;;;;;;;;4917481;29;20195;-81
2021/07/24 06:33:16;;;;;;;3.15;2.92;;;;;;;;;;4917476;29;20641;-81
2021/07/24 06:35:44;;;;;;;3.88;3.47;;;;;;;;;;4917430;29;20724;-81
2021/07/24 06:38:12;;;;;;;4.32;3.85;;;;;;;;;;4917176;29;20214;-85
2021/07/24 06:40:41;;;;;;;3.58;3.28;;;;;;;;;;4916296;29;20216;-82
2021/07/24 06:43:10;;;;;;;4.57;3.78;;;;;;;;;;4916869;29;20218;-81
2021/07/24 06:46:18;;;;;;;3.10;2.90;;;;;;;;;;4918177;29;20191;-85
2021/07/24 06:48:48;;;;;;;4.07;3.78;;;;;;;;;;4917847;29;20191;-82
2021/07/24 06:51:18;;;;;;;4.40;4.00;;;;;;;;;;4915818;29;20194;-83
2021/07/24 06:53:53;;;;;;;4.38;3.70;;;;;;;;;;4917223;29;20326;-83
2021/07/24 06:56:20;;;;;;;3.78;3.47;;;;;;;;;;4916868;29;20209;-83
2021/07/24 06:58:48;;;;;;;3.65;3.35;;;;;;;;;;4917400;29;20210;-83
2021/07/24 07:01:18;;;;;;;3.35;3.05;;;;;;;;;;4904202;29;20199;-84
2021/07/24 07:03:45;;;;;;;4.60;4.20;;;;;;;;;;4910177;29;20233;-81
2021/07/24 07:06:18;;;;;;;3.75;3.45;;;;;;;;;;4917699;29;20198;-81
2021/07/24 07:08:48;;;;;;;3.65;3.35;;;;;;;;;;4917395;29;20220;-81
2021/07/24 07:11:29;;;;;;;2.90;2.70;;;;;;;;;;4917061;29;20195;-81
2021/07/24 07:13:58;;;;;;;4.72;4.25;;;;;;;;;;4916329;29;20233;-81
2021/07/24 07:16:28;;;;;;;4.18;3.78;;;;;;;;;;4908520;29;20215;-82
2021/07/24 07:18:57;;;;;;;5.13;3.75;;;;;;;;;;4898497;29;20225;-81
2021/07/24 07:21:28;;;;;;;4.25;3.95;;;;;;;;;;4902326;29;20273;-80
2021/07/24 07:23:55;;;;;;;3.72;3.42;;;;;;;;;;4915378;29;20262;-79
2021/07/24 07:26:28;;;;;;;3.90;3.60;;;;;;;;;;4916552;29;20691;-79
2021/07/24 07:29:02;;;;;;;2.92;2.72;;;;;;;;;;4917780;29;20863;-79
2021/07/24 07:31:31;;;;;;;3.25;2.95;;;;;;;;;;4917016;29;20197;-79
2021/07/24 07:34:01;;;;;;;6.43;5.00;;;;;;;;;;4917407;29;20223;-79
2021/07/24 07:36:36;;;;;;;5.93;5.35;;;;;;;;;;4917150;29;20214;-79
2021/07/24 07:39:05;;;;;;;4.43;4.03;;;;;;;;;;4917290;29;20212;-82
2021/07/24 07:41:33;;;;;;;3.55;3.25;;;;;;;;;;4915328;29;20195;-82
2021/07/24 07:44:08;;;;;;;3.63;3.33;;;;;;;;;;4916476;29;20720;-85
2021/07/24 07:46:35;;;;;;;3.63;3.33;;;;;;;;;;4905705;29;20206;-83
2021/07/24 07:49:29;;;;;;;4.07;3.75;;;;;;;;;;4897912;29;20214;-83
2021/07/24 07:51:57;;;;;;;4.03;3.72;;;;;;;;;;4897614;29;20229;-84
2021/07/24 07:54:33;;;;;;;3.50;3.28;;;;;;;;;;4898087;29;20866;-83
2021/07/24 07:57:01;;;;;;;4.40;4.00;;;;;;;;;;4912308;29;20222;-82
2021/07/24 07:59:36;;;;;;;4.15;3.75;;;;;;;;;;4916417;29;20187;-84
2021/07/24 08:02:04;;;;;;;4.72;4.32;;;;;;;;;;4914881;29;20206;-81
2021/07/24 08:04:43;;;;;;;5.78;5.28;;;;;;;;;;4916004;29;20218;-83
2021/07/24 08:07:14;;;;;;;4.65;4.35;;;;;;;;;;4916372;29;20591;-81
2021/07/24 08:10:52;;;;;;;5.47;4.97;;;;;;;;;;4916620;29;20594;-82
2021/07/24 08:13:20;;;;;;;3.90;3.60;;;;;;;;;;4914676;29;20222;-81
2021/07/24 08:15:55;;;;;;;3.95;3.65;;;;;;;;;;4916373;29;20230;-82
2021/07/24 08:18:45;;;;;;;4.70;4.30;;;;;;;;;;4916526;29;20195;-81
2021/07/24 08:21:14;;;;;;;5.25;4.75;;;;;;;;;;4915500;29;20198;-81
2021/07/24 08:23:42;;;;;;;4.03;3.72;;;;;;;;;;4900658;29;20239;-80
2021/07/24 08:26:12;;;;;;;4.07;3.78;;;;;;;;;;4909016;29;20206;-82
2021/07/24 08:28:45;;;;;;;4.78;4.38;;;;;;;;;;4920041;29;20195;-81
2021/07/24 08:31:16;;;;;;;6.30;5.68;;;;;;;;;;4919321;29;20206;-81
2021/07/24 08:33:45;;;;;;;5.18;4.78;;;;;;;;;;4917391;29;20218;-83
2021/07/24 08:36:19;;;;;;;5.68;5.18;;;;;;;;;;4919518;29;20214;-81
2021/07/24 08:38:56;;;;;;;4.28;3.88;;;;;;;;;;4919755;29;20190;-81
2021/07/24 08:41:24;;;;;;;4.82;4.43;;;;;;;;;;4917871;29;20190;-80
2021/07/24 08:43:59;;;;;;;4.70;4.30;;;;;;;;;;4919381;29;20238;-80
2021/07/24 08:46:29;;;;;;;4.82;4.43;;;;;;;;;;4919212;29;20202;-80
2021/07/24 08:49:12;;;;;;;4.68;4.28;;;;;;;;;;4918967;29;20207;-80
2021/07/24 08:51:49;;;;;;;4.70;4.30;;;;;;;;;;4915419;29;20211;-81
2021/07/24 08:54:20;;;;;;;4.63;4.30;;;;;;;;;;4900331;29;20604;-81
2021/07/24 08:56:50;;;;;;;5.15;4.75;;;;;;;;;;4913133;29;20233;-81
2021/07/24 08:59:19;;;;;;;4.45;4.10;;;;;;;;;;4918072;29;20198;-80
2021/07/24 09:01:56;;;;;;;4.70;4.32;;;;;;;;;;4918993;29;20228;-81
2021/07/24 09:04:25;;;;;;;6.05;5.55;;;;;;;;;;4918522;29;21009;-81
2021/07/24 09:07:00;;;;;;;7.40;6.70;;;;;;;;;;4918491;29;20199;-82
2021/07/24 09:09:35;;;;;;;4.85;4.45;;;;;;;;;;4918850;29;20253;-81
2021/07/24 09:12:14;;;;;;;5.68;5.18;;;;;;;;;;4918936;29;20205;-83
2021/07/24 09:14:42;;;;;;;6.05;5.55;;;;;;;;;;4918864;29;20229;-81
2021/07/24 09:17:11;;;;;;;4.20;3.90;;;;;;;;;;4918445;29;20211;-81
2021/07/24 09:19:40;;;;;;;5.65;5.15;;;;;;;;;;4918166;29;20234;-84
2021/07/24 09:22:28;;;;;;;5.43;5.03;;;;;;;;;;4918583;29;20214;-82
2021/07/24 09:25:17;;;;;;;5.65;5.15;;;;;;;;;;4918383;29;20246;-82
2021/07/24 09:27:46;;;;;;;4.55;4.15;;;;;;;;;;4917538;29;20201;-84
2021/07/24 09:30:33;;;;;;;6.18;5.68;;;;;;;;;;4918575;29;20203;-82
2021/07/24 09:33:09;;;;;;;5.38;4.93;;;;;;;;;;4915513;29;20222;-81
2021/07/24 09:35:39;;;;;;;6.63;6.10;;;;;;;;;;4908999;29;20946;-81
2021/07/24 09:38:31;;;;;;;4.95;4.55;;;;;;;;;;4918191;29;20236;-81
2021/07/24 09:41:19;;;;;;;4.50;4.15;;;;;;;;;;4918424;29;20210;-82
2021/07/24 09:43:50;;;;;;;5.50;5.10;;;;;;;;;;4918205;29;20222;-81
2021/07/24 09:46:21;;;;;;;5.10;4.70;;;;;;;;;;4917828;29;20212;-85
2021/07/24 09:48:50;;;;;;;4.65;4.32;;;;;;;;;;4918469;29;20209;-82
2021/07/24 09:51:35;;;;;;;6.25;5.75;;;;;;;;;;4918069;29;20210;-84
2021/07/24 09:54:27;;;;;;;5.82;5.30;;;;;;;;;;4917770;29;20736;-81
2021/07/24 09:57:04;;;;;;;5.35;4.93;;;;;;;;;;4917893;29;20210;-83
2021/07/24 09:59:36;;;;;;;6.45;5.88;;;;;;;;;;4918064;29;20574;-84
2021/07/24 10:03:00;;;;;;;6.15;5.65;;;;;;;;;;4918262;29;20191;-83
2021/07/24 10:05:47;;;;;;;5.75;5.25;;;;;;;;;;4917807;29;20195;-83
2021/07/24 10:08:24;;;;;;;4.93;4.53;;;;;;;;;;4918102;29;20210;-82
2021/07/24 10:11:01;;;;;;;4.20;3.90;;;;;;;;;;4918073;29;20190;-81
2021/07/24 10:13:31;;;;;;;3.95;3.65;;;;;;;;;;4917922;29;20232;-81
2021/07/24 10:16:14;;;;;;;4.25;3.95;;;;;;;;;;4918187;29;20201;-86
2021/07/24 10:18:46;;;;;;;3.92;3.60;;;;;;;;;;4911842;29;20206;-81
2021/07/24 10:21:14;;;;;;;4.57;4.25;;;;;;;;;;4918047;29;20191;-81
2021/07/24 10:23:42;;;;;;;4.93;4.53;;;;;;;;;;4917503;29;20796;-82
2021/07/24 10:26:22;;;;;;;4.18;3.88;;;;;;;;;;4917732;29;20187;-81
2021/07/24 10:29:04;;;;;;;3.92;3.63;;;;;;;;;;4917788;29;20183;-81
2021/07/24 10:31:42;;;;;;;3.60;3.30;;;;;;;;;;4917886;29;20581;-81
2021/07/24 10:34:12;;;;;;;6.05;5.50;;;;;;;;;;4917957;29;20226;-81
2021/07/24 10:36:42;;;;;;;5.60;5.10;;;;;;;;;;4917793;29;20556;-81
2021/07/24 10:39:20;;;;;;;5.28;4.80;;;;;;;;;;4918070;29;20223;-81
2021/07/24 10:41:50;;;;;;;4.10;3.80;;;;;;;;;;4918035;29;20646;-81
2021/07/24 10:44:37;;;;;;;4.90;4.43;;;;;;;;;;4918008;29;20230;-82
2021/07/24 10:47:21;;;;;;;4.80;4.40;;;;;;;;;;4917690;29;20213;-82
2021/07/24 10:50:04;;;;;;;4.90;4.50;;;;;;;;;;4917527;29;20289;-81
2021/07/24 10:53:14;;;;;;;5.07;4.68;;;;;;;;;;4917918;29;20183;-82
2021/07/24 10:55:48;;;;;;;5.65;4.82;;;;;;;;;;4914761;29;20658;-84
2021/07/24 10:58:22;;;;;;;4.55;4.15;;;;;;;;;;4917199;29;20212;-82
2021/07/24 11:00:51;;;;;;;5.80;5.40;;;;;;;;;;4917541;29;20919;-81
2021/07/24 11:03:43;;;;;;;5.18;4.68;;;;;;;;;;4904628;29;20230;-81
2021/07/24 11:06:26;;;;;;;4.40;4.10;;;;;;;;;;4908990;29;20221;-81
2021/07/24 11:09:17;;;;;;;5.22;4.82;;;;;;;;;;4917736;29;20213;-81
2021/07/24 11:11:47;;;;;;;4.53;4.20;;;;;;;;;;4917720;29;20242;-82
2021/07/24 11:14:49;;;;;;;5.32;4.88;;;;;;;;;;4917684;29;20264;-81
2021/07/24 11:17:18;;;;;;;4.80;4.50;;;;;;;;;;4917142;29;20194;-81
2021/07/24 11:20:04;;;;;;;4.15;3.85;;;;;;;;;;4917501;29;20190;-82
2021/07/24 11:22:34;;;;;;;3.97;3.67;;;;;;;;;;4917181;29;20254;-81
2021/07/24 11:25:34;;;;;;;5.60;5.20;;;;;;;;;;4917744;29;20289;-82
2021/07/24 11:28:03;;;;;;;4.70;4.40;;;;;;;;;;4898466;29;20183;-81
2021/07/24 11:30:33;;;;;;;5.88;5.22;;;;;;;;;;4898476;29;20655;-81
2021/07/24 11:33:05;;;;;;;5.03;4.63;;;;;;;;;;4901208;29;21597;-82
2021/07/24 11:35:39;;;;;;;6.45;5.63;;;;;;;;;;4916781;29;20187;-82
2021/07/24 11:38:25;;;;;;;4.65;4.28;;;;;;;;;;4917067;29;20222;-82
2021/07/24 11:41:08;;;;;;;4.78;4.38;;;;;;;;;;4916753;29;20206;-82
2021/07/24 11:43:37;;;;;;;5.10;4.70;;;;;;;;;;4903959;29;20222;-81
2021/07/24 11:46:09;;;;;;;5.55;5.10;;;;;;;;;;4905411;29;20264;-81
2021/07/24 11:48:41;;;;;;;5.72;5.22;;;;;;;;;;4916854;29;20282;-83
2021/07/24 11:51:10;;;;;;;5.55;5.10;;;;;;;;;;4917018;29;20198;-81
2021/07/24 11:53:40;;;;;;;4.65;4.25;;;;;;;;;;4916638;29;20222;-81
2021/07/24 11:56:12;;;;;;;4.57;4.20;;;;;;;;;;4917486;29;20289;-81
2021/07/24 11:58:40;;;;;;;4.95;4.55;;;;;;;;;;4920477;29;20229;-81
2021/07/24 12:01:24;;;;;;;5.03;4.63;;;;;;;;;;4920669;29;20210;-82
2021/07/24 12:04:10;;;;;;;4.90;4.50;;;;;;;;;;4918523;29;20226;-81
2021/07/24 12:06:51;;;;;;;5.47;5.07;;;;;;;;;;4920278;29;20265;-81
2021/07/24 12:09:18;;;;;;;5.90;5.30;;;;;;;;;;4920307;29;20664;-81
2021/07/24 12:11:52;;;;;;;5.00;4.60;;;;;;;;;;4920004;29;20725;-80
2021/07/24 12:14:23;;;;;;;6.80;6.20;;;;;;;;;;4919673;29;20599;-81
2021/07/24 12:17:05;;;;;;;4.85;4.45;;;;;;;;;;4919696;29;20210;-82
2021/07/24 12:19:39;;;;;;;5.00;4.60;;;;;;;;;;4920254;29;20213;-80
2021/07/24 12:22:16;;;;;;;5.70;5.20;;;;;;;;;;4920411;29;20199;-82
2021/07/24 12:24:48;;;;;;;4.60;4.25;;;;;;;;;;4919549;29;20248;-83
2021/07/24 12:27:17;;;;;;;5.10;4.70;;;;;;;;;;4920501;29;20198;-82
2021/07/24 12:29:53;;;;;;;4.85;4.50;;;;;;;;;;4920798;29;20187;-81
2021/07/24 12:32:22;;;;;;;4.93;4.53;;;;;;;;;;4920544;29;20190;-81
2021/07/24 12:34:51;;;;;;;6.75;5.95;;;;;;;;;;4919416;29;20222;-81
2021/07/24 12:37:34;;;;;;;7.30;6.70;;;;;;;;;;4919580;29;20209;-82
2021/07/24 12:40:15;;;;;;;6.72;6.13;;;;;;;;;;4901505;29;20222;-82
2021/07/24 12:42:45;;;;;;;6.63;6.03;;;;;;;;;;4901236;29;20639;-82
2021/07/24 12:45:29;;;;;;;5.72;5.22;;;;;;;;;;4901706;29;20651;-82
2021/07/24 12:47:56;;;;;;;5.03;4.63;;;;;;;;;;4920631;29;20214;-83
2021/07/24 12:50:25;;;;;;;5.10;4.70;;;;;;;;;;4919253;29;20195;-81
2021/07/24 12:52:53;;;;;;;4.82;4.43;;;;;;;;;;4918888;29;20578;-81
2021/07/24 12:55:24;;;;;;;4.93;4.53;;;;;;;;;;4917489;29;20195;-81
2021/07/24 12:57:53;;;;;;;4.78;4.47;;;;;;;;;;4901125;29;20207;-80
2021/07/24 13:00:24;;;;;;;3.85;3.55;;;;;;;;;;4901285;29;20230;-81
2021/07/24 13:02:52;;;;;;;3.90;3.60;;;;;;;;;;4901105;29;20642;-80
2021/07/24 13:05:22;;;;;;;3.33;3.03;;;;;;;;;;4902361;29;20211;-80
2021/07/24 13:07:53;;;;;;;2.88;2.67;;;;;;;;;;4919244;29;20201;-81
2021/07/24 13:10:21;;;;;;;3.95;3.65;;;;;;;;;;4920649;29;20198;-81
2021/07/24 13:12:50;;;;;;;4.38;3.97;;;;;;;;;;4920006;29;20589;-82
2021/07/24 13:15:17;;;;;;;3.88;3.58;;;;;;;;;;4920355;29;20289;-81
2021/07/24 13:17:46;;;;;;;4.07;3.78;;;;;;;;;;4920141;29;20225;-81
2021/07/24 13:20:14;;;;;;;3.70;3.40;;;;;;;;;;4920016;29;20206;-81
2021/07/24 13:22:42;;;;;;;3.58;3.33;;;;;;;;;;4919986;29;20193;-81
2021/07/24 13:25:31;;;;;;;3.22;3.03;;;;;;;;;;4919535;29;20234;-88
2021/07/24 13:28:15;;;;;;;2.97;2.78;;;;;;;;;;4919825;29;20198;-81
2021/07/24 13:30:43;;;;;;;4.05;3.65;;;;;;;;;;4919904;29;20191;-81
2021/07/24 13:33:12;;;;;;;3.05;2.85;;;;;;;;;;4919469;29;20226;-81
2021/07/24 13:35:42;;;;;;;3.35;3.15;;;;;;;;;;4919621;29;20566;-84
2021/07/24 13:38:11;;;;;;;3.55;3.35;;;;;;;;;;4919644;29;20238;-82
2021/07/24 13:40:41;;;;;;;3.75;3.45;;;;;;;;;;4919299;29;20234;-81
2021/07/24 13:43:08;;;;;;;3.50;3.20;;;;;;;;;;4919734;29;20526;-82
2021/07/24 13:45:36;;;;;;;3.90;3.60;;;;;;;;;;4919885;29;20687;-82
2021/07/24 13:48:04;;;;;;;2.95;2.67;;;;;;;;;;4919538;29;20218;-84
2021/07/24 13:50:31;;;;;;;3.47;3.28;;;;;;;;;;4919486;29;20796;-83
2021/07/24 13:52:59;;;;;;;4.93;4.05;;;;;;;;;;4919380;29;20293;-82
2021/07/24 13:55:28;;;;;;;2.95;2.75;;;;;;;;;;4919102;29;20664;-80
2021/07/24 13:57:57;;;;;;;3.33;3.13;;;;;;;;;;4919123;29;20205;-81
2021/07/24 14:00:25;;;;;;;3.70;3.17;;;;;;;;;;4919051;29;20231;-81
2021/07/24 14:02:53;;;;;;;3.40;3.13;;;;;;;;;;4918839;29;20197;-81
2021/07/24 14:05:21;;;;;;;3.20;3.00;;;;;;;;;;4918756;29;20210;-81
2021/07/24 14:07:49;;;;;;;3.22;2.92;;;;;;;;;;4918453;29;20195;-81
2021/07/24 14:10:18;;;;;;;3.45;3.15;;;;;;;;;;4918738;29;20565;-81
2021/07/24 14:12:46;;;;;;;3.17;2.97;;;;;;;;;;4919352;29;20197;-82
2021/07/24 14:15:15;;;;;;;3.10;2.90;;;;;;;;;;4916804;29;20218;-81
2021/07/24 14:17:42;;;;;;;3.20;3.00;;;;;;;;;;4919799;29;20202;-81
2021/07/24 14:20:12;;;;;;;2.75;2.55;;;;;;;;;;4918297;29;20238;-81
2021/07/24 14:22:40;;;;;;;3.00;2.80;;;;;;;;;;4919107;29;20210;-81
2021/07/24 14:25:10;;;;;;;2.28;2.17;;;;;;;;;;4918190;29;20250;-81
2021/07/24 14:27:38;;;;;;;3.20;2.28;;;;;;;;;;4908680;29;20251;-81
2021/07/24 14:30:06;;;;;;;2.78;2.58;;;;;;;;;;4900000;29;20188;-82
2021/07/24 14:32:37;;;;;;;2.78;2.58;;;;;;;;;;4900394;29;20188;-81
2021/07/24 14:35:06;;;;;;;3.13;2.67;;;;;;;;;;4899816;29;20251;-81
2021/07/24 14:37:33;;;;;;;3.17;2.97;;;;;;;;;;4899249;29;20199;-81
2021/07/24 14:40:01;;;;;;;3.00;2.80;;;;;;;;;;4899918;29;20207;-81
2021/07/24 14:42:30;;;;;;;3.35;3.05;;;;;;;;;;4899343;29;20215;-81
2021/07/24 14:44:59;;;;;;;3.88;3.58;;;;;;;;;;4899563;29;20317;-81
2021/07/24 14:47:28;;;;;;;4.00;3.70;;;;;;;;;;4916367;29;20206;-83
2021/07/24 14:49:56;;;;;;;4.15;3.83;;;;;;;;;;4918835;29;20191;-81
2021/07/24 14:52:25;;;;;;;3.58;3.38;;;;;;;;;;4919475;29;20213;-81
2021/07/24 14:54:53;;;;;;;3.72;3.42;;;;;;;;;;4917565;29;20226;-81
2021/07/24 14:57:21;;;;;;;3.92;3.63;;;;;;;;;;4918642;29;20293;-80
2021/07/24 14:59:49;;;;;;;3.28;2.97;;;;;;;;;;4918913;29;20229;-81
2021/07/24 15:02:16;;;;;;;3.72;3.42;;;;;;;;;;4918721;29;20210;-80
2021/07/24 15:04:44;;;;;;;3.92;3.63;;;;;;;;;;4918403;29;20617;-80
2021/07/24 15:07:13;;;;;;;2.92;2.30;;;;;;;;;;4918535;29;20217;-82
2021/07/24 15:09:42;;;;;;;2.90;2.70;;;;;;;;;;4918904;29;20242;-81
2021/07/24 15:12:11;;;;;;;2.97;2.78;;;;;;;;;;4918011;29;20673;-81